createdAt,value
2019-03-11T05:28:36.661Z,4.00
2019-03-11T05:29:36.718Z,4.00
2019-03-11T05:30:36.633Z,4.00
2019-03-11T05:31:36.627Z,4.00
2019-03-11T05:32:36.618Z,8.00
2019-03-11T05:33:36.603Z,8.00
2019-03-11T05:34:36.606Z,12.00
2019-03-11T05:35:36.574Z,12.00
2019-03-11T05:36:36.566Z,16.00
2019-03-11T05:37:36.552Z,20.00
2019-03-11T05:38:36.540Z,20.00
2019-03-11T05:39:36.560Z,24.00
2019-03-11T05:40:36.529Z,28.00
2019-03-11T05:41:36.510Z,32.00
2019-03-11T05:42:36.504Z,36.00
2019-03-11T05:43:36.521Z,36.00
2019-03-11T05:44:36.492Z,36.00
2019-03-11T05:45:36.482Z,28.00
2019-03-11T05:46:36.499Z,20.00
2019-03-11T05:47:36.443Z,16.00
2019-03-11T05:48:36.428Z,16.00
2019-03-11T05:49:36.438Z,8.00
2019-03-11T05:50:36.417Z,12.00
2019-03-11T05:51:36.419Z,8.00
2019-03-11T05:52:36.396Z,8.00
2019-03-11T05:53:36.377Z,12.00
2019-03-11T05:54:36.372Z,20.00
2019-03-11T05:55:36.364Z,56.00
2019-03-11T05:56:36.351Z,108.00
2019-03-11T05:58:36.332Z,112.00
2019-03-11T05:59:36.312Z,124.00
2019-03-11T06:00:36.325Z,132.00
2019-03-11T06:01:36.297Z,164.00
2019-03-11T06:02:36.683Z,232.00
2019-03-11T06:03:36.335Z,300.00
2019-03-11T06:04:36.260Z,340.00
2019-03-11T06:05:36.245Z,368.00
2019-03-11T06:06:36.238Z,380.00
2019-03-11T06:07:36.267Z,388.00
2019-03-11T06:08:36.222Z,384.00
2019-03-11T06:09:36.205Z,376.00
2019-03-11T06:10:36.331Z,356.00
2019-03-11T06:11:36.191Z,320.00
2019-03-11T06:12:36.184Z,316.00
2019-03-11T06:13:36.446Z,320.00
2019-03-11T06:14:36.178Z,320.00
2019-03-11T06:15:36.140Z,396.00
2019-03-11T06:16:36.137Z,460.00
2019-03-11T06:17:36.186Z,468.00
2019-03-11T06:18:36.113Z,500.00
2019-03-11T06:19:36.092Z,488.00
2019-03-11T06:20:36.098Z,420.00
2019-03-11T06:21:36.071Z,416.00
2019-03-11T06:22:36.100Z,500.00
2019-03-11T06:23:36.091Z,552.00
2019-03-11T06:24:36.059Z,624.00
2019-03-11T06:25:36.039Z,656.00
2019-03-11T06:26:36.026Z,672.00
2019-03-11T06:27:36.009Z,744.00
2019-03-11T06:28:35.999Z,840.00
2019-03-11T06:29:35.981Z,960.00
2019-03-11T06:30:36.824Z,976.00
2019-03-11T06:31:36.052Z,1092.00
2019-03-11T06:32:35.972Z,1140.00
2019-03-11T06:33:35.950Z,1164.00
2019-03-11T06:34:35.936Z,1236.00
2019-03-11T06:35:35.930Z,1328.00
2019-03-11T06:36:35.912Z,1420.00
2019-03-11T06:37:35.927Z,1456.00
2019-03-11T06:38:35.893Z,1444.00
2019-03-11T06:39:35.897Z,1432.00
2019-03-11T06:40:35.901Z,1432.00
2019-03-11T06:41:35.878Z,1496.00
2019-03-11T06:42:35.853Z,1588.00
2019-03-11T06:43:35.906Z,1684.00
2019-03-11T06:44:35.829Z,1840.00
2019-03-11T06:45:35.813Z,1996.00
2019-03-11T06:46:35.819Z,2108.00
2019-03-11T06:47:35.825Z,2304.00
2019-03-11T06:48:35.783Z,2464.00
2019-03-11T06:49:35.775Z,2580.00
2019-03-11T06:50:35.763Z,2732.00
2019-03-11T06:51:35.755Z,2900.00
2019-03-11T06:52:35.739Z,3048.00
2019-03-11T06:53:35.751Z,3196.00
2019-03-11T06:54:35.736Z,3316.00
2019-03-11T06:55:36.719Z,3568.00
2019-03-11T06:56:35.713Z,3880.00
2019-03-11T06:57:35.696Z,4164.00
2019-03-11T06:58:35.695Z,4352.00
2019-03-11T06:59:35.661Z,4588.00
2019-03-11T07:00:35.670Z,4800.00
2019-03-11T07:01:35.639Z,5012.00
2019-03-11T07:02:35.719Z,5232.00
2019-03-11T07:03:35.626Z,5208.00
2019-03-11T07:04:35.615Z,5080.00
2019-03-11T07:05:35.594Z,4880.00
2019-03-11T07:06:35.586Z,4544.00
2019-03-11T07:07:35.632Z,3600.00
2019-03-11T07:08:35.658Z,2224.00
2019-03-11T07:09:35.609Z,1476.00
2019-03-11T07:10:35.606Z,1244.00
2019-03-11T07:11:35.622Z,872.00
2019-03-11T07:12:35.612Z,832.00
2019-03-11T07:13:35.580Z,824.00
2019-03-11T07:14:35.569Z,744.00
2019-03-11T07:15:35.581Z,656.00
2019-03-11T07:16:35.559Z,596.00
2019-03-11T07:17:35.562Z,588.00
2019-03-11T07:18:35.668Z,732.00
2019-03-11T07:19:35.589Z,880.00
2019-03-11T07:20:35.647Z,1112.00
2019-03-11T07:21:35.490Z,1464.00
2019-03-11T07:22:35.508Z,1372.00
2019-03-11T07:23:35.521Z,1432.00
2019-03-11T07:24:35.606Z,2192.00
2019-03-11T07:25:35.434Z,2036.00
2019-03-11T07:26:35.412Z,2412.00
2019-03-11T07:27:35.408Z,3020.00
2019-03-11T07:28:35.429Z,2236.00
2019-03-11T07:29:35.379Z,1480.00
2019-03-11T07:30:35.325Z,1112.00
2019-03-11T07:31:35.336Z,724.00
2019-03-11T07:32:35.323Z,712.00
2019-03-11T07:33:35.314Z,808.00
2019-03-11T07:34:35.327Z,948.00
2019-03-11T07:35:35.270Z,844.00
2019-03-11T07:36:35.278Z,564.00
2019-03-11T07:37:35.260Z,460.00
2019-03-11T07:38:35.277Z,500.00
2019-03-11T07:39:35.233Z,556.00
2019-03-11T07:40:35.297Z,716.00
2019-03-11T07:41:35.324Z,908.00
2019-03-11T07:42:35.242Z,1104.00
2019-03-11T07:43:35.250Z,1452.00
2019-03-11T07:44:35.208Z,1264.00
2019-03-11T07:45:37.937Z,1576.00
2019-03-11T07:46:35.314Z,1712.00
2019-03-11T07:47:35.160Z,1864.00
2019-03-11T07:48:35.210Z,1992.00
2019-03-11T07:49:35.175Z,1984.00
2019-03-11T07:50:35.133Z,2532.00
2019-03-11T07:51:38.182Z,3112.00
2019-03-11T07:52:35.092Z,3832.00
2019-03-11T07:53:35.111Z,4292.00
2019-03-11T07:54:36.008Z,4452.00
2019-03-11T07:55:35.095Z,4368.00
2019-03-11T07:56:35.081Z,5048.00
2019-03-11T07:57:35.039Z,5696.00
2019-03-11T07:58:35.093Z,6032.00
2019-03-11T07:59:35.030Z,6252.00
2019-03-11T08:00:35.860Z,5436.00
2019-03-11T08:01:35.071Z,6328.00
2019-03-11T08:02:35.022Z,6120.00
2019-03-11T08:03:35.073Z,5988.00
2019-03-11T08:04:34.991Z,5744.00
2019-03-11T08:05:34.986Z,5920.00
2019-03-11T08:06:34.924Z,7136.00
2019-03-11T08:07:34.920Z,7504.00
2019-03-11T08:08:34.994Z,7944.00
2019-03-11T08:09:38.217Z,9132.00
2019-03-11T08:10:34.919Z,9864.00
2019-03-11T08:11:34.883Z,11388.00
2019-03-11T08:12:34.868Z,11400.00
2019-03-11T08:13:34.846Z,11228.00
2019-03-11T08:14:34.858Z,11668.00
2019-03-11T08:15:34.838Z,11588.00
2019-03-11T08:16:34.871Z,11284.00
2019-03-11T08:17:34.819Z,9664.00
2019-03-11T08:18:35.454Z,8136.00
2019-03-11T08:19:34.793Z,7672.00
2019-03-11T08:20:34.769Z,7260.00
2019-03-11T08:21:34.783Z,6428.00
2019-03-11T08:22:34.747Z,6044.00
2019-03-11T08:23:35.833Z,6296.00
2019-03-11T08:24:34.730Z,7720.00
2019-03-11T08:25:34.758Z,9560.00
2019-03-11T08:26:34.717Z,11308.00
2019-03-11T08:27:34.690Z,11408.00
2019-03-11T08:28:34.692Z,9420.00
2019-03-11T08:29:34.675Z,6940.00
2019-03-11T08:30:34.691Z,4768.00
2019-03-11T08:31:34.728Z,3196.00
2019-03-11T08:32:34.651Z,2644.00
2019-03-11T08:33:34.649Z,2576.00
2019-03-11T08:34:34.666Z,1692.00
2019-03-11T08:35:34.680Z,1500.00
2019-03-11T08:36:34.690Z,1380.00
2019-03-11T08:37:34.684Z,1316.00
2019-03-11T08:38:34.651Z,1688.00
2019-03-11T08:39:34.561Z,2192.00
2019-03-11T08:40:34.646Z,2624.00
2019-03-11T08:41:34.604Z,2204.00
2019-03-11T08:42:34.535Z,2476.00
2019-03-11T08:43:34.519Z,3660.00
2019-03-11T08:44:34.516Z,4096.00
2019-03-11T08:45:34.518Z,4156.00
2019-03-11T08:46:34.489Z,3940.00
2019-03-11T08:47:34.476Z,4172.00
2019-03-11T08:48:34.467Z,4888.00
2019-03-11T08:49:35.475Z,4440.00
2019-03-11T08:50:34.456Z,6032.00
2019-03-11T08:51:34.439Z,6852.00
2019-03-11T08:52:34.423Z,8080.00
2019-03-11T08:53:34.409Z,7532.00
2019-03-11T08:54:34.406Z,7096.00
2019-03-11T08:55:34.437Z,6008.00
2019-03-11T08:56:34.432Z,6904.00
2019-03-11T08:57:34.454Z,8296.00
2019-03-11T08:58:34.358Z,6600.00
2019-03-11T08:59:34.341Z,9344.00
2019-03-11T09:00:35.941Z,11060.00
2019-03-11T09:01:34.377Z,10116.00
2019-03-11T09:02:34.339Z,9272.00
2019-03-11T09:03:34.417Z,8380.00
2019-03-11T09:04:34.290Z,6672.00
2019-03-11T09:05:34.279Z,5324.00
2019-03-11T09:06:34.353Z,6752.00
2019-03-11T09:07:35.382Z,6636.00
2019-03-11T09:08:34.343Z,4576.00
2019-03-11T09:09:34.325Z,4052.00
2019-03-11T09:10:34.314Z,3904.00
2019-03-11T09:11:35.300Z,4252.00
2019-03-11T09:12:34.321Z,4356.00
2019-03-11T09:13:34.270Z,4200.00
2019-03-11T09:14:35.285Z,5868.00
2019-03-11T09:15:34.376Z,8684.00
2019-03-11T09:17:01.014Z,9384.00
2019-03-11T09:18:00.869Z,8108.00
2019-03-11T09:19:00.850Z,8200.00
2019-03-11T09:19:59.832Z,8624.00
2019-03-11T09:20:59.909Z,9312.00
2019-03-11T09:21:59.837Z,10568.00
2019-03-11T09:23:00.920Z,12916.00
2019-03-11T09:24:00.801Z,11740.00
2019-03-11T09:24:59.936Z,11100.00
2019-03-11T09:25:59.893Z,10088.00
2019-03-11T09:26:59.752Z,11220.00
2019-03-11T09:27:59.826Z,10888.00
2019-03-11T09:28:59.696Z,10116.00
2019-03-11T09:29:59.716Z,9528.00
2019-03-11T09:30:59.632Z,10424.00
2019-03-11T09:31:59.629Z,11084.00
2019-03-11T09:32:59.606Z,11160.00
2019-03-11T09:33:59.617Z,11120.00
2019-03-11T09:34:59.613Z,10252.00
2019-03-11T09:35:59.604Z,9104.00
2019-03-11T09:36:59.680Z,7712.00
2019-03-11T09:37:59.560Z,10296.00
2019-03-11T09:38:59.778Z,12120.00
2019-03-11T09:40:00.477Z,12472.00
2019-03-11T09:40:59.520Z,11400.00
2019-03-11T09:41:59.630Z,7440.00
2019-03-11T09:42:59.668Z,6732.00
2019-03-11T09:43:59.507Z,9192.00
2019-03-11T09:44:59.512Z,7300.00
2019-03-11T09:45:59.487Z,9840.00
2019-03-11T09:46:59.484Z,9676.00
2019-03-11T09:47:59.480Z,9280.00
2019-03-11T09:48:59.447Z,9220.00
2019-03-11T09:50:00.431Z,10560.00
2019-03-11T09:50:59.550Z,10696.00
2019-03-11T09:51:59.523Z,12108.00
2019-03-11T09:52:59.413Z,13084.00
2019-03-11T09:53:59.406Z,12848.00
2019-03-11T09:54:59.499Z,9644.00
2019-03-11T09:55:59.439Z,8780.00
2019-03-11T09:56:59.437Z,9140.00
2019-03-11T09:57:59.627Z,9736.00
2019-03-11T09:58:59.470Z,12444.00
2019-03-11T09:59:59.356Z,17152.00
2019-03-11T10:00:59.365Z,16576.00
2019-03-11T10:01:59.339Z,15308.00
2019-03-11T10:02:59.328Z,17024.00
2019-03-11T10:03:59.287Z,15308.00
2019-03-11T10:04:59.313Z,15328.00
2019-03-11T10:05:59.283Z,17568.00
2019-03-11T10:06:59.248Z,11032.00
2019-03-11T10:07:59.484Z,10996.00
2019-03-11T10:08:59.233Z,11356.00
2019-03-11T10:09:59.250Z,12736.00
2019-03-11T10:10:59.296Z,13376.00
2019-03-11T10:11:59.205Z,14268.00
2019-03-11T10:12:59.173Z,12840.00
2019-03-11T10:13:59.217Z,11368.00
2019-03-11T10:14:59.163Z,8852.00
2019-03-11T10:15:59.144Z,11504.00
2019-03-11T10:16:59.140Z,10824.00
2019-03-11T10:17:59.127Z,12896.00
2019-03-11T10:18:59.221Z,14100.00
2019-03-11T10:19:59.104Z,13868.00
2019-03-11T10:20:59.139Z,14312.00
2019-03-11T10:21:59.086Z,16116.00
2019-03-11T10:22:59.140Z,13848.00
2019-03-11T10:23:59.487Z,13928.00
2019-03-11T10:24:59.075Z,13968.00
2019-03-11T10:25:59.042Z,14828.00
2019-03-11T10:26:59.015Z,15192.00
2019-03-11T10:27:59.020Z,12532.00
2019-03-11T10:28:59.007Z,8532.00
2019-03-11T10:29:59.002Z,9700.00
2019-03-11T10:31:05.024Z,10536.00
2019-03-11T10:32:23.710Z,16236.00
2019-03-11T10:33:23.771Z,17088.00
2019-03-11T10:34:23.700Z,16992.00
2019-03-11T10:35:32.639Z,16864.00
2019-03-11T10:36:48.748Z,17696.00
2019-03-11T10:37:48.734Z,11320.00
2019-03-11T10:38:48.725Z,10092.00
2019-03-11T10:39:48.728Z,13948.00
2019-03-11T10:40:48.702Z,14924.00
2019-03-11T10:41:48.716Z,17472.00
2019-03-11T10:42:48.704Z,13848.00
2019-03-11T10:43:48.686Z,13304.00
2019-03-11T10:44:48.657Z,18560.00
2019-03-11T10:45:51.719Z,13908.00
2019-03-11T10:46:48.660Z,15148.00
2019-03-11T10:47:48.627Z,13292.00
2019-03-11T10:48:48.616Z,16292.00
2019-03-11T10:49:48.628Z,18624.00
2019-03-11T10:50:48.739Z,15572.00
2019-03-11T10:51:48.640Z,14516.00
2019-03-11T10:52:48.621Z,13708.00
2019-03-11T10:53:48.620Z,12344.00
2019-03-11T10:54:48.735Z,12284.00
2019-03-11T10:55:48.692Z,13012.00
2019-03-11T10:56:48.597Z,12764.00
2019-03-11T10:57:48.599Z,13944.00
2019-03-11T10:58:49.598Z,17856.00
2019-03-11T10:59:48.571Z,22144.00
2019-03-11T11:00:48.691Z,23680.00
2019-03-11T11:01:48.551Z,22976.00
2019-03-11T11:02:48.581Z,21760.00
2019-03-11T11:03:49.518Z,16664.00
2019-03-11T11:04:48.517Z,16372.00
2019-03-11T11:05:48.515Z,17408.00
2019-03-11T11:06:48.505Z,15960.00
2019-03-11T11:07:48.509Z,17184.00
2019-03-11T11:08:48.450Z,16656.00
2019-03-11T11:09:48.467Z,15352.00
2019-03-11T11:10:48.435Z,12212.00
2019-03-11T11:11:48.893Z,9024.00
2019-03-11T11:12:48.460Z,9276.00
2019-03-11T11:13:48.416Z,13884.00
2019-03-11T11:14:48.402Z,18496.00
2019-03-11T11:15:48.397Z,13940.00
2019-03-11T11:16:48.395Z,11840.00
2019-03-11T11:17:48.375Z,10392.00
2019-03-11T11:18:49.376Z,8716.00
2019-03-11T11:19:48.388Z,10268.00
2019-03-11T11:20:48.338Z,11480.00
2019-03-11T11:21:48.333Z,11988.00
2019-03-11T11:22:48.312Z,10292.00
2019-03-11T11:23:48.305Z,7700.00
2019-03-11T11:24:48.301Z,7800.00
2019-03-11T11:25:48.265Z,9840.00
2019-03-11T11:26:48.243Z,11176.00
2019-03-11T11:27:48.298Z,13344.00
2019-03-11T11:28:49.254Z,16044.00
2019-03-11T11:29:48.288Z,16068.00
2019-03-11T11:30:48.264Z,15728.00
2019-03-11T11:31:48.207Z,16468.00
2019-03-11T11:32:48.207Z,14960.00
2019-03-11T11:33:48.226Z,9504.00
2019-03-11T11:34:48.205Z,9232.00
2019-03-11T11:35:48.099Z,13584.00
2019-03-11T11:36:48.273Z,14504.00
2019-03-11T11:37:48.116Z,15704.00
2019-03-11T11:38:48.079Z,15700.00
2019-03-11T11:39:48.071Z,14388.00
2019-03-11T11:40:48.058Z,12832.00
2019-03-11T11:41:48.071Z,15900.00
2019-03-11T11:42:48.014Z,17536.00
2019-03-11T11:43:48.032Z,15620.00
2019-03-11T11:44:48.066Z,13920.00
2019-03-11T11:45:56.178Z,11976.00
2019-03-11T11:47:13.398Z,12180.00
2019-03-11T11:48:13.388Z,13264.00
2019-03-11T11:49:14.402Z,11652.00
2019-03-11T11:50:14.375Z,11448.00
2019-03-11T11:51:13.415Z,11488.00
2019-03-11T11:52:14.366Z,10928.00
2019-03-11T11:53:13.469Z,11208.00
2019-03-11T11:54:39.045Z,14880.00
2019-03-11T11:55:39.984Z,13748.00
2019-03-11T11:56:39.036Z,11728.00
2019-03-11T11:57:38.992Z,13660.00
2019-03-11T11:58:40.932Z,14764.00
2019-03-11T11:59:38.960Z,12620.00
2019-03-11T12:00:38.933Z,11308.00
2019-03-11T12:01:38.916Z,11760.00
2019-03-11T12:02:39.911Z,10412.00
2019-03-11T12:03:38.997Z,8552.00
2019-03-11T12:04:38.888Z,8500.00
2019-03-11T12:05:38.864Z,9084.00
2019-03-11T12:06:38.866Z,9948.00
2019-03-11T12:07:38.841Z,11596.00
2019-03-11T12:08:38.843Z,13828.00
2019-03-11T12:09:38.852Z,10444.00
2019-03-11T12:10:38.802Z,11612.00
2019-03-11T12:11:38.730Z,11472.00
2019-03-11T12:12:38.762Z,10444.00
2019-03-11T12:13:38.719Z,11004.00
2019-03-11T12:14:38.796Z,8124.00
2019-03-11T12:15:39.399Z,7348.00
